Back to Top

Language: 

Current Local METAR Station Weather Reports...

Local METAR Reports

Local METAR Reports

 

EGCN - Doncaster Sheffield Airport, United Kingdom
Distance from station: E 20mi, 32km
Updated: Thu, 01-Jan-1970 1:00am BST
NOT Current
unable to load EGCN data RC=
unable to load EGCN data RC=
 
EGNM - Leeds Bradford International, United Kingdom
Distance from station: NNW 24mi, 39km
Updated: Sun, 21-Oct-2018 5:20pm BST
Partly Cloudy
Partly Cloudy
 Wind from W
Wind: W 15 mph , 24 km/h
Temperature: 12°C
Dew Point: 10°C
Humidity: 88%
Barometer: 1026 hPa
Clouds: Partly Cloudy
Visibility: 6 miles , 10 km
Cloud details: Few Clouds 396 m
Partly Cloudy 975 m
2018/10/21 16:20 EGNM 211620Z 28013KT 9999 FEW013 SCT032 12/10 Q1026
 
EGCC - Manchester International, United Kingdom
Distance from station: WSW 35mi, 56km
Updated: Sun, 21-Oct-2018 5:20pm BST
Mostly Cloudy
Mostly Cloudy
 Wind from NW
Wind: NW 9 mph , 15 km/h
Temperature: 12°C
Dew Point: 9°C
Humidity: 82%
Barometer: 1028 hPa
Clouds: Mostly Cloudy
Visibility: 6 miles , 10 km
Cloud details: Partly Cloudy 488 m
Mostly Cloudy 1189 m
2018/10/21 16:20 EGCC 211620Z AUTO 31008KT 9999 SCT016 BKN039 12/09 Q1028 NOSIG
EGXU - Linton-On-Ouse RAF, United Kingdom
Distance from station: NNE 37mi, 60km
Updated: Sun, 21-Oct-2018 4:50pm BST
Partly Cloudy
Partly Cloudy
 Wind from NW
Wind: NW 12 mph , 19 km/h
Temperature: 14°C
Dew Point: 10°C
Humidity: 77%
Barometer: 1025 hPa
Clouds: Partly Cloudy
Visibility: 6 miles , 10 km
Cloud details: Mostly Cloudy 853 m
Partly Cloudy 1219 m
2018/10/21 15:50 EGXU 211550Z AUTO 31010KT 9999 // BKN028/// SCT040/// 14/10 Q1025
 
EGXP - Scampton RAF, United Kingdom
Distance from station: ESE 41mi, 66km
Updated: Sun, 21-Oct-2018 4:50pm BST
Overcast
Overcast
 Wind from NW
Wind: NW 16 mph , 26 km/h
Temperature: 16°C
Dew Point: 12°C
Humidity: 77%
Barometer: 1025 hPa
Clouds: Overcast
Visibility: 6 miles , 10 km
Cloud details: Overcast 671 m
2018/10/21 15:50 EGXP 211550Z AUTO 31014KT 9999 // OVC022/// 16/12 Q1025
EGNJ - Humberside Airport, United Kingdom
Distance from station: E 46mi, 74km
Updated: Sun, 21-Oct-2018 5:20pm BST
Mostly Cloudy
Mostly Cloudy
 Wind from W
Wind: W 8 mph , 13 km/h
Temperature: 16°C
Dew Point: 13°C
Humidity: 83%
Barometer: 1025 hPa
Clouds: Mostly Cloudy
Visibility: 6 miles , 10 km
Cloud details: Mostly Cloudy 610 m
2018/10/21 16:20 EGNJ 211620Z 27007KT 9999 BKN020 16/13 Q1025
 
EGXW - Waddington RAF, United Kingdom
Distance from station: ESE 46mi, 74km
Updated: Sun, 21-Oct-2018 4:50pm BST
Mostly Cloudy
Mostly Cloudy
 Wind from WNW
Wind: WNW 13 mph , 20 km/h
Temperature: 17°C
Dew Point: 13°C
Humidity: 77%
Barometer: 1025 hPa
Clouds: Mostly Cloudy
Visibility: 6 miles , 10 km
Cloud details: Mostly Cloudy 640 m
Mostly Cloudy 823 m
2018/10/21 15:50 EGXW 211550Z 29011KT 9999 BKN021 BKN027 17/13 Q1025 WHT
EGXZ - Topcliffe RAF, United Kingdom
Distance from station: N 46mi, 75km
Updated: Sun, 21-Oct-2018 4:50pm BST
Mostly Cloudy
Mostly Cloudy
 Wind from NW
Wind: NW 14 mph , 22 km/h
Temperature: 14°C
Dew Point: 8°C
Humidity: 67%
Barometer: 1026 hPa
Clouds: Mostly Cloudy
Visibility: 6 miles , 10 km
Cloud details: Few Clouds 1158 m
Partly Cloudy 1341 m
Mostly Cloudy 1524 m
2018/10/21 15:50 EGXZ 211550Z AUTO 31012KT 9999 FEW038/// SCT044/// BKN050/// 14/08 Q1026
 
EGXV - Leconfield, United Kingdom
Distance from station: ENE 48mi, 77km
Updated: Sun, 21-Oct-2018 4:50pm BST
Mostly Cloudy
Mostly Cloudy
 Wind from WNW
Wind: WNW 10 mph , 17 km/h
Temperature: 16°C
Dew Point: 12°C
Humidity: 77%
Barometer: 1025 hPa
Clouds: Mostly Cloudy
Visibility: 6 miles , 10 km
Cloud details: Mostly Cloudy 518 m
Mostly Cloudy 671 m
2018/10/21 15:50 EGXV 211550Z AUTO 29009KT 9999 BKN017/// BKN022/// 16/12 Q1025
EGNX - East Midlands, United Kingdom
Distance from station: S 50mi, 80km
Updated: Sun, 21-Oct-2018 5:20pm BST
Mostly Cloudy
Mostly Cloudy
 Wind from W
Wind: W 10 mph , 17 km/h
Temperature: 15°C
Dew Point: 13°C
Humidity: 88%
Barometer: 1026 hPa
Clouds: Mostly Cloudy
Visibility: 6 miles , 10 km
Cloud details: Partly Cloudy 305 m
Mostly Cloudy 488 m
2018/10/21 16:20 EGNX 211620Z 28009KT 9999 SCT010 BKN016 15/13 Q1026

Metar display script from Saratoga-Weather.org

Data updates at regular intervals.